Aérodrome :
LOGIN :

S'inscrire | Disclaimer

   EN    FR    IT 

 










Légende :    VFR   VFR Marginal   IFR   IFR Intensif   IFR Très Intensif
Visi : 
Plafond : 
>= 8 km
>= 3000ft
5 à 8 km
1000 à 3000 ft
1500m à 5 km
500 à 1000 ft
800 à 1500m
200 à 500 ft
< 800m
< 200 ft
Symboles :   Orages  Brouillard  Fortes neiges  Fortes précipitations  Vent > 20 kt
SIGMETs :   Divers  Orages  Givrage  Turbulence  Onde Orograph.  Cendres Volcan.






- Altitude de l'aérodrome : 20 ft


EBFN - Koksijde

DERNIER METAR :
  • 041455Z AUTO 14008KT 9999 BKN052/// 16/03 Q1021 BLU

METARs EXPIRÉS :
  • 041425Z AUTO 16008KT 9999 BKN053/// 15/03 Q1021 BLU
  • 041355Z AUTO 17007KT 9999 SCT048/// 15/04 Q1021 BLU
  • 041325Z AUTO 17007KT 9999 SCT046/// 15/03 Q1022 BLU
  • 041255Z AUTO 18007KT 9999 FEW046/// 15/04 Q1022 BLU
  • 041225Z AUTO 17007KT 9999 NCD 16/04 Q1022 BLU

TAF TAF EBFN
Valide du 04 à 13h jusqu'au 04 à 22h UTC


041141Z 0413/0422 16009KT 9999 SCT035 SCT200



MET'MAP, la Météo Aéronautique d'un coup d'oeil ! - Copyright ORBIFLY Décembre 2007 - Disclaimer

ORBIFLY MET'MAP TEAM :

Programmation & Développement : Alexandra Zaïnal
Sur une idée originale de : Baudouin d'Aumeries
Assistance à la programmation : Marc-Olivier Méhu
Soutien technique & logistique : Manuel Goepfert

Contact : metmap@orbifly.com




SOURCES & CREDITS :

   NOAA